Wetterdaten: Woche 09.08.21 - 15.08.21 (KW32)
Datum Zeit Temp. Aussen Temp. o. S. Temp +5cm Feuchte Auss Luftdruck Regen Sonnenschein Regendauer Solar Windben Empfang
09.08.2021 00:00 15,5 C 14,5 C 12,8 C 88 % 1014,4 hPa 0,0 l/m 0,00 h 0,00 h 0 W/m 7,8 km/h (2 Bft) 97,85 %
09.08.2021 01:00 15,4 C 14,6 C 13,0 C 89 % 1014,7 hPa 0,0 l/m 0,00 h 0,00 h 0 W/m 6,3 km/h (2 Bft) 97,22 %
09.08.2021 02:00 14,8 C 13,6 C 12,3 C 90 % 1014,7 hPa 0,0 l/m 0,00 h 0,00 h 0 W/m 4,3 km/h (1 Bft) 97,50 %
09.08.2021 03:00 14,2 C 13,5 C 12,3 C 90 % 1015,0 hPa 0,0 l/m 0,00 h 0,00 h 0 W/m 4,9 km/h (1 Bft) 98,31 %
09.08.2021 04:00 14,2 C 13,8 C 12,3 C 90 % 1015,1 hPa 0,0 l/m 0,00 h 0,00 h 0 W/m 4,5 km/h (1 Bft) 97,17 %
09.08.2021 05:00 14,4 C 13,9 C 12,3 C 90 % 1015,2 hPa 0,0 l/m 0,00 h 0,00 h 0 W/m 4,9 km/h (1 Bft) 97,36 %
09.08.2021 06:00 14,4 C 13,6 C 12,3 C 90 % 1015,2 hPa 0,0 l/m 0,00 h 0,00 h 10 W/m 6,7 km/h (2 Bft) 99,56 %
09.08.2021 07:00 14,2 C 13,7 C 12,3 C 92 % 1015,5 hPa 0,0 l/m 0,00 h 0,03 h 28 W/m 5,3 km/h (1 Bft) 95,17 %
09.08.2021 08:00 14,6 C 14,2 C 13,0 C 92 % 1015,7 hPa 0,0 l/m 0,00 h 0,10 h 68 W/m 6,4 km/h (2 Bft) 99,15 %
09.08.2021 09:00 16,2 C 18,1 C 16,1 C 90 % 1015,8 hPa 0,0 l/m 0,70 h 0,00 h 322 W/m 10,3 km/h (2 Bft) 96,30 %
09.08.2021 10:00 18,6 C 20,0 C 17,9 C 78 % 1015,9 hPa 0,0 l/m 0,80 h 0,00 h 407 W/m 16,8 km/h (3 Bft) 97,15 %
09.08.2021 11:00 20,0 C 20,4 C 19,0 C 71 % 1015,9 hPa 0,0 l/m 0,43 h 0,00 h 440 W/m 23,7 km/h (4 Bft) 97,01 %
09.08.2021 12:00 20,5 C 21,2 C 19,8 C 67 % 1016,0 hPa 0,0 l/m 0,67 h 0,00 h 429 W/m 26,5 km/h (4 Bft) 97,83 %
09.08.2021 13:00 21,0 C 21,6 C 19,2 C 67 % 1016,1 hPa 0,0 l/m 0,53 h 0,00 h 433 W/m 23,6 km/h (4 Bft) 98,43 %
09.08.2021 14:00 20,9 C 21,3 C 18,6 C 66 % 1016,3 hPa 0,0 l/m 0,47 h 0,00 h 365 W/m 21,5 km/h (4 Bft) 97,08 %
09.08.2021 15:00 21,7 C 22,6 C 19,3 C 64 % 1016,2 hPa 0,0 l/m 0,30 h 0,00 h 348 W/m 26,9 km/h (4 Bft) 96,99 %
09.08.2021 16:00 21,4 C 21,3 C 18,6 C 67 % 1016,2 hPa 0,0 l/m 0,07 h 0,00 h 189 W/m 20,5 km/h (4 Bft) 99,70 %
09.08.2021 17:00 20,5 C 19,5 C 16,7 C 71 % 1016,3 hPa 0,2 l/m 0,00 h 0,40 h 57 W/m 17,2 km/h (3 Bft) 95,23 %
09.08.2021 18:00 17,0 C 15,7 C 13,2 C 89 % 1016,8 hPa 4,8 l/m 0,23 h 0,70 h 114 W/m 13,1 km/h (3 Bft) 98,45 %
09.08.2021 19:00 16,1 C 15,4 C 13,0 C 93 % 1016,8 hPa 0,0 l/m 0,00 h 0,03 h 78 W/m 9,0 km/h (2 Bft) 98,50 %
09.08.2021 20:00 15,9 C 14,9 C 13,0 C 94 % 1016,7 hPa 0,2 l/m 0,00 h 0,33 h 19 W/m 6,5 km/h (2 Bft) 92,54 %
09.08.2021 21:00 15,7 C 14,5 C 13,3 C 95 % 1017,0 hPa 1,8 l/m 0,00 h 0,33 h 0 W/m 6,9 km/h (2 Bft) 98,29 %
09.08.2021 22:00 15,4 C 14,2 C 13,3 C 95 % 1017,2 hPa 0,0 l/m 0,00 h 0,03 h 0 W/m 7,3 km/h (2 Bft) 99,50 %
09.08.2021 23:00 15,1 C 14,1 C 13,4 C 96 % 1017,0 hPa 0,0 l/m 0,00 h 0,00 h 0 W/m 7,7 km/h (2 Bft) 94,66 %
10.08.2021 00:00 15,1 C 14,2 C 13,4 C 96 % 1017,1 hPa 0,6 l/m 0,00 h 0,37 h 0 W/m 5,2 km/h (1 Bft) 96,11 %
10.08.2021 01:00 15,0 C 13,9 C 13,4 C 97 % 1016,9 hPa 0,0 l/m 0,00 h 0,00 h 0 W/m 4,4 km/h (1 Bft) 97,44 %
10.08.2021 02:00 14,6 C 13,5 C 13,2 C 97 % 1016,7 hPa 0,0 l/m 0,00 h 0,00 h 0 W/m 4,8 km/h (1 Bft) 97,08 %
10.08.2021 03:00 14,2 C 13,3 C 13,0 C 97 % 1016,3 hPa 0,0 l/m 0,00 h 0,00 h 0 W/m 3,8 km/h (1 Bft) 98,29 %
10.08.2021 04:00 14,4 C 13,7 C 13,4 C 97 % 1016,6 hPa 1,2 l/m 0,00 h 0,33 h 0 W/m 6,7 km/h (2 Bft) 97,72 %
10.08.2021 05:00 14,2 C 13,0 C 13,1 C 97 % 1016,8 hPa 1,6 l/m 0,00 h 0,83 h 0 W/m 8,0 km/h (2 Bft) 96,58 %
10.08.2021 06:00 13,7 C 12,4 C 12,6 C 97 % 1016,6 hPa 0,0 l/m 0,00 h 0,00 h 13 W/m 4,2 km/h (1 Bft) 99,08 %
10.08.2021 07:00 13,8 C 13,0 C 12,9 C 97 % 1016,8 hPa 0,0 l/m 0,00 h 0,00 h 35 W/m 6,6 km/h (2 Bft) 97,15 %
10.08.2021 08:00 14,8 C 14,7 C 14,1 C 98 % 1017,1 hPa 0,0 l/m 0,13 h 0,00 h 139 W/m 9,7 km/h (2 Bft) 94,03 %
10.08.2021 09:00 16,3 C 17,6 C 15,7 C 98 % 1017,2 hPa 0,0 l/m 0,43 h 0,00 h 234 W/m 8,3 km/h (2 Bft) 97,87 %
10.08.2021 10:00 17,5 C 17,7 C 16,0 C 93 % 1017,3 hPa 0,2 l/m 0,00 h 0,20 h 210 W/m 10,4 km/h (2 Bft) 93,66 %
10.08.2021 11:00 17,7 C 17,7 C 16,0 C 92 % 1017,2 hPa 0,2 l/m 0,03 h 0,30 h 257 W/m 7,1 km/h (2 Bft) 92,45 %
10.08.2021 12:00 19,0 C 20,3 C 19,4 C 89 % 1017,1 hPa 0,0 l/m 0,37 h 0,00 h 435 W/m 8,4 km/h (2 Bft) 99,49 %
10.08.2021 13:00 20,9 C 22,3 C 20,0 C 80 % 1016,9 hPa 0,0 l/m 0,63 h 0,00 h 617 W/m 14,5 km/h (3 Bft) 95,30 %
10.08.2021 14:00 22,7 C 24,7 C 21,0 C 71 % 1016,5 hPa 0,0 l/m 0,93 h 0,00 h 670 W/m 14,2 km/h (3 Bft) 98,51 %
10.08.2021 15:00 21,5 C 21,4 C 19,1 C 76 % 1016,5 hPa 0,0 l/m 0,17 h 0,23 h 313 W/m 15,9 km/h (3 Bft) 98,01 %
10.08.2021 16:00 19,3 C 19,1 C 16,4 C 89 % 1016,6 hPa 0,8 l/m 0,17 h 0,33 h 232 W/m 8,9 km/h (2 Bft) 97,44 %
10.08.2021 17:00 20,2 C 21,0 C 18,0 C 86 % 1016,5 hPa 0,0 l/m 0,40 h 0,00 h 231 W/m 10,8 km/h (2 Bft) 95,79 %
10.08.2021 18:00 19,7 C 19,3 C 17,6 C 85 % 1016,5 hPa 0,0 l/m 0,00 h 0,27 h 143 W/m 14,6 km/h (3 Bft) 98,08 %
10.08.2021 19:00 19,1 C 18,9 C 16,9 C 86 % 1016,7 hPa 0,2 l/m 0,23 h 0,03 h 86 W/m 4,2 km/h (1 Bft) 97,01 %
10.08.2021 20:00 19,1 C 18,3 C 16,7 C 86 % 1016,9 hPa 0,0 l/m 0,20 h 0,00 h 35 W/m 2,5 km/h (1 Bft) 98,15 %
10.08.2021 21:00 18,1 C 16,8 C 15,5 C 89 % 1017,3 hPa 0,0 l/m 0,00 h 0,00 h 5 W/m 2,5 km/h (1 Bft) 96,56 %
10.08.2021 22:00 17,3 C 16,2 C 15,1 C 91 % 1017,9 hPa 0,0 l/m 0,00 h 0,00 h 0 W/m 0,6 km/h (0 Bft) 97,72 %
10.08.2021 23:00 17,3 C 16,5 C 15,5 C 93 % 1018,1 hPa 0,0 l/m 0,00 h 0,00 h 0 W/m 1,4 km/h (1 Bft) 97,86 %
11.08.2021 00:00 17,0 C 15,9 C 15,0 C 94 % 1018,4 hPa 0,0 l/m 0,00 h 0,00 h 0 W/m 1,1 km/h (1 Bft) 96,98 %
11.08.2021 01:00 16,4 C 15,1 C 14,6 C 94 % 1018,6 hPa 0,0 l/m 0,00 h 0,00 h 0 W/m 0,6 km/h (0 Bft) 96,64 %
11.08.2021 02:00 15,7 C 14,3 C 13,9 C 95 % 1018,5 hPa 0,0 l/m 0,00 h 0,00 h 0 W/m 0,4 km/h (0 Bft) 98,65 %
11.08.2021 03:00 14,6 C 13,4 C 13,4 C 95 % 1018,6 hPa 0,0 l/m 0,00 h 0,00 h 0 W/m 0,0 km/h (0 Bft) 97,30 %
11.08.2021 04:00 14,1 C 12,9 C 13,1 C 96 % 1018,6 hPa 0,0 l/m 0,00 h 0,00 h 0 W/m 0,0 km/h (0 Bft) 96,61 %
11.08.2021 05:00 13,9 C 12,9 C 13,0 C 96 % 1018,7 hPa 0,0 l/m 0,00 h 0,00 h 0 W/m 0,1 km/h (0 Bft) 99,43 %
11.08.2021 06:00 13,8 C 13,0 C 13,1 C 96 % 1018,8 hPa 0,0 l/m 0,00 h 0,00 h 16 W/m 1,9 km/h (1 Bft) 95,65 %
11.08.2021 07:00 14,5 C 14,0 C 14,1 C 97 % 1019,1 hPa 0,0 l/m 0,00 h 0,00 h 64 W/m 3,3 km/h (1 Bft) 98,49 %
11.08.2021 08:00 15,2 C 15,2 C 15,2 C 98 % 1019,7 hPa 0,0 l/m 0,07 h 0,00 h 113 W/m 3,4 km/h (1 Bft) 97,15 %
11.08.2021 09:00 16,2 C 17,5 C 16,8 C 98 % 1020,0 hPa 0,0 l/m 0,47 h 0,00 h 248 W/m 4,2 km/h (1 Bft) 94,76 %
11.08.2021 10:00 18,3 C 21,9 C 19,0 C 97 % 1020,0 hPa 0,0 l/m 0,80 h 0,00 h 460 W/m 9,4 km/h (2 Bft) 92,27 %
11.08.2021 11:00 20,8 C 21,7 C 20,5 C 85 % 1019,9 hPa 0,0 l/m 0,63 h 0,00 h 498 W/m 8,3 km/h (2 Bft) 93,88 %
11.08.2021 12:00 21,7 C 22,2 C 21,0 C 80 % 1020,0 hPa 0,0 l/m 0,17 h 0,00 h 271 W/m 9,0 km/h (2 Bft) 89,29 %
11.08.2021 13:00 22,5 C 23,8 C 21,4 C 74 % 1020,0 hPa 0,0 l/m 0,63 h 0,00 h 562 W/m 8,5 km/h (2 Bft) 97,74 %
11.08.2021 14:00 23,8 C 26,0 C 21,9 C 69 % 1020,0 hPa 0,0 l/m 0,97 h 0,00 h 633 W/m 10,6 km/h (2 Bft) 97,15 %
11.08.2021 15:00 24,3 C 26,6 C 21,5 C 66 % 1019,7 hPa 0,0 l/m 0,83 h 0,00 h 701 W/m 9,7 km/h (2 Bft) 98,79 %
11.08.2021 16:00 24,9 C 28,4 C 21,5 C 65 % 1019,4 hPa 0,0 l/m 0,97 h 0,00 h 616 W/m 10,5 km/h (2 Bft) 96,72 %
11.08.2021 17:00 24,8 C 27,6 C 21,7 C 65 % 1019,2 hPa 0,0 l/m 0,93 h 0,00 h 438 W/m 7,8 km/h (2 Bft) 98,15 %
11.08.2021 18:00 24,7 C 26,4 C 21,3 C 66 % 1019,2 hPa 0,0 l/m 0,77 h 0,00 h 266 W/m 8,7 km/h (2 Bft) 98,30 %
11.08.2021 19:00 24,4 C 24,0 C 20,7 C 67 % 1019,2 hPa 0,0 l/m 0,90 h 0,00 h 142 W/m 6,0 km/h (2 Bft) 96,80 %
11.08.2021 20:00 23,3 C 22,0 C 19,1 C 71 % 1019,2 hPa 0,0 l/m 0,00 h 0,00 h 30 W/m 3,6 km/h (1 Bft) 96,94 %
11.08.2021 21:00 21,5 C 19,3 C 16,7 C 78 % 1019,6 hPa 0,0 l/m 0,00 h 0,00 h 4 W/m 0,3 km/h (0 Bft) 99,65 %
11.08.2021 22:00 19,4 C 17,3 C 15,5 C 86 % 1019,9 hPa 0,0 l/m 0,00 h 0,00 h 0 W/m 0,0 km/h (0 Bft) 95,80 %
11.08.2021 23:00 18,0 C 16,7 C 15,0 C 89 % 1020,0 hPa 0,0 l/m 0,00 h 0,00 h 0 W/m 0,0 km/h (0 Bft) 99,00 %
12.08.2021 00:00 17,3 C 16,1 C 14,6 C 91 % 1020,1 hPa 0,0 l/m 0,00 h 0,00 h 0 W/m 0,0 km/h (0 Bft) 97,14 %
12.08.2021 01:00 16,9 C 15,8 C 14,6 C 93 % 1020,0 hPa 0,0 l/m 0,00 h 0,00 h 0 W/m 0,0 km/h (0 Bft) 98,93 %
12.08.2021 02:00 16,3 C 15,2 C 14,3 C 93 % 1019,9 hPa 0,0 l/m 0,00 h 0,00 h 0 W/m 0,0 km/h (0 Bft) 96,50 %
12.08.2021 03:00 15,9 C 14,7 C 13,9 C 94 % 1019,8 hPa 0,0 l/m 0,00 h 0,00 h 0 W/m 0,0 km/h (0 Bft) 98,15 %
12.08.2021 04:00 15,4 C 14,4 C 13,8 C 94 % 1019,6 hPa 0,0 l/m 0,00 h 0,00 h 0 W/m 0,0 km/h (0 Bft) 99,56 %
12.08.2021 05:00 15,2 C 14,3 C 13,8 C 95 % 1019,5 hPa 0,0 l/m 0,00 h 0,00 h 0 W/m 0,0 km/h (0 Bft) 94,96 %
12.08.2021 06:00 14,9 C 13,9 C 13,4 C 95 % 1019,7 hPa 0,0 l/m 0,00 h 0,00 h 10 W/m 0,0 km/h (0 Bft) 99,37 %
12.08.2021 07:00 15,0 C 14,7 C 14,1 C 96 % 1019,9 hPa 0,0 l/m 0,00 h 0,00 h 40 W/m 0,0 km/h (0 Bft) 96,44 %
12.08.2021 08:00 16,2 C 17,2 C 16,1 C 97 % 1019,9 hPa 0,0 l/m 0,03 h 0,00 h 122 W/m 0,0 km/h (0 Bft) 95,27 %
12.08.2021 09:00 18,1 C 20,6 C 18,5 C 95 % 1020,0 hPa 0,0 l/m 0,37 h 0,00 h 236 W/m 0,0 km/h (0 Bft) 98,29 %
12.08.2021 10:00 20,9 C 24,6 C 19,9 C 85 % 1020,2 hPa 0,0 l/m 0,80 h 0,00 h 428 W/m 1,7 km/h (1 Bft) 97,86 %
12.08.2021 11:00 23,1 C 24,1 C 22,4 C 74 % 1020,2 hPa 0,0 l/m 1,00 h 0,00 h 606 W/m 8,0 km/h (2 Bft) 95,51 %
12.08.2021 12:00 23,9 C 25,4 C 24,2 C 69 % 1020,0 hPa 0,0 l/m 0,90 h 0,00 h 486 W/m 6,3 km/h (2 Bft) 99,82 %
12.08.2021 13:00 24,7 C 25,6 C 22,7 C 65 % 1019,9 hPa 0,0 l/m 0,17 h 0,00 h 376 W/m 6,0 km/h (2 Bft) 96,58 %
12.08.2021 14:00 25,0 C 25,4 C 22,4 C 62 % 1019,9 hPa 0,0 l/m 0,00 h 0,00 h 331 W/m 7,9 km/h (2 Bft) 97,08 %
12.08.2021 15:00 26,0 C 28,2 C 22,7 C 58 % 1019,8 hPa 0,0 l/m 0,87 h 0,00 h 602 W/m 5,7 km/h (1 Bft) 98,57 %
12.08.2021 16:00 27,7 C 32,1 C 23,1 C 54 % 1019,3 hPa 0,0 l/m 0,97 h 0,00 h 638 W/m 8,8 km/h (2 Bft) 97,65 %
12.08.2021 17:00 26,9 C 27,5 C 22,9 C 55 % 1019,1 hPa 0,0 l/m 0,33 h 0,00 h 275 W/m 5,9 km/h (2 Bft) 96,65 %
12.08.2021 18:00 26,8 C 27,5 C 22,6 C 57 % 1019,0 hPa 0,0 l/m 0,40 h 0,00 h 238 W/m 4,3 km/h (1 Bft) 98,53 %
12.08.2021 19:00 25,7 C 24,7 C 21,3 C 62 % 1018,9 hPa 0,0 l/m 0,13 h 0,00 h 94 W/m 2,3 km/h (1 Bft) 97,72 %
12.08.2021 20:00 24,6 C 22,8 C 19,6 C 69 % 1018,8 hPa 0,0 l/m 0,00 h 0,00 h 22 W/m 1,4 km/h (1 Bft) 97,18 %
12.08.2021 21:00 23,0 C 21,4 C 18,7 C 74 % 1019,1 hPa 0,0 l/m 0,00 h 0,00 h 0 W/m 0,7 km/h (0 Bft) 97,01 %
12.08.2021 22:00 22,0 C 20,1 C 17,6 C 79 % 1020,0 hPa 0,0 l/m 0,00 h 0,00 h 0 W/m 0,0 km/h (0 Bft) 99,19 %
12.08.2021 23:00 20,4 C 18,4 C 16,3 C 85 % 1019,6 hPa 0,0 l/m 0,00 h 0,00 h 0 W/m 0,0 km/h (0 Bft) 97,44 %
13.08.2021 00:00 19,0 C 17,4 C 15,6 C 88 % 1019,2 hPa 0,0 l/m 0,00 h 0,00 h 0 W/m 0,0 km/h (0 Bft) 94,55 %
13.08.2021 01:00 18,2 C 16,8 C 15,4 C 90 % 1019,3 hPa 0,0 l/m 0,00 h 0,00 h 0 W/m 0,0 km/h (0 Bft) 98,22 %
13.08.2021 02:00 17,7 C 16,7 C 15,2 C 92 % 1019,5 hPa 0,0 l/m 0,00 h 0,00 h 0 W/m 0,0 km/h (0 Bft) 98,15 %
13.08.2021 03:00 17,5 C 16,7 C 15,4 C 93 % 1019,6 hPa 0,0 l/m 0,00 h 0,00 h 0 W/m 0,0 km/h (0 Bft) 97,79 %
13.08.2021 04:00 17,3 C 16,3 C 15,1 C 93 % 1019,6 hPa 0,0 l/m 0,00 h 0,00 h 0 W/m 0,0 km/h (0 Bft) 96,49 %
13.08.2021 05:00 17,0 C 15,9 C 14,9 C 93 % 1019,4 hPa 0,0 l/m 0,00 h 0,00 h 0 W/m 0,0 km/h (0 Bft) 99,79 %
13.08.2021 06:00 16,8 C 16,2 C 15,1 C 94 % 1019,3 hPa 0,0 l/m 0,00 h 0,00 h 15 W/m 0,6 km/h (0 Bft) 95,86 %
13.08.2021 07:00 17,5 C 17,4 C 16,2 C 95 % 1019,6 hPa 0,0 l/m 0,00 h 0,00 h 58 W/m 5,8 km/h (2 Bft) 98,15 %
13.08.2021 08:00 18,6 C 19,0 C 17,5 C 92 % 1020,3 hPa 0,0 l/m 0,17 h 0,00 h 150 W/m 5,0 km/h (1 Bft) 98,41 %
13.08.2021 09:00 20,1 C 21,2 C 19,3 C 87 % 1020,7 hPa 0,0 l/m 0,67 h 0,00 h 279 W/m 10,2 km/h (2 Bft) 96,23 %
13.08.2021 10:00 21,2 C 21,8 C 19,9 C 82 % 1021,4 hPa 0,0 l/m 0,40 h 0,00 h 302 W/m 10,5 km/h (2 Bft) 97,29 %
13.08.2021 11:00 22,4 C 23,3 C 21,6 C 77 % 1021,8 hPa 0,0 l/m 0,90 h 0,00 h 572 W/m 11,1 km/h (2 Bft) 99,08 %
13.08.2021 12:00 24,4 C 26,2 C 25,5 C 70 % 1021,7 hPa 0,0 l/m 1,00 h 0,00 h 701 W/m 12,4 km/h (3 Bft) 96,79 %
13.08.2021 13:00 25,1 C 26,2 C 22,8 C 67 % 1021,8 hPa 0,0 l/m 0,93 h 0,00 h 693 W/m 14,8 km/h (3 Bft) 98,01 %
13.08.2021 14:00 25,6 C 27,2 C 23,1 C 65 % 1021,9 hPa 0,0 l/m 1,00 h 0,00 h 686 W/m 17,2 km/h (3 Bft) 97,01 %
13.08.2021 15:00 25,2 C 26,1 C 22,3 C 62 % 1022,0 hPa 0,0 l/m 0,77 h 0,00 h 481 W/m 16,5 km/h (3 Bft) 99,55 %
13.08.2021 16:00 24,3 C 24,3 C 21,5 C 63 % 1022,2 hPa 0,0 l/m 0,30 h 0,00 h 303 W/m 13,0 km/h (3 Bft) 92,10 %
13.08.2021 17:00 24,4 C 26,4 C 21,4 C 61 % 1022,2 hPa 0,0 l/m 1,00 h 0,00 h 381 W/m 12,2 km/h (3 Bft) 98,29 %
13.08.2021 18:00 24,5 C 27,8 C 21,3 C 57 % 1021,9 hPa 0,0 l/m 0,77 h 0,00 h 310 W/m 12,7 km/h (3 Bft) 98,12 %
13.08.2021 19:00 23,1 C 22,4 C 19,7 C 61 % 1021,9 hPa 0,0 l/m 0,00 h 0,00 h 87 W/m 9,9 km/h (2 Bft) 96,43 %
13.08.2021 20:00 22,0 C 20,7 C 18,3 C 65 % 1022,0 hPa 0,0 l/m 0,33 h 0,00 h 30 W/m 4,4 km/h (1 Bft) 94,95 %
13.08.2021 21:00 20,3 C 18,3 C 16,0 C 74 % 1022,3 hPa 0,0 l/m 0,00 h 0,00 h 0 W/m 0,3 km/h (0 Bft) 98,22 %
13.08.2021 22:00 18,5 C 16,8 C 14,9 C 80 % 1022,5 hPa 0,0 l/m 0,00 h 0,00 h 0 W/m 0,0 km/h (0 Bft) 95,23 %
13.08.2021 23:00 17,4 C 15,8 C 14,2 C 85 % 1022,6 hPa 0,0 l/m 0,00 h 0,00 h 0 W/m 0,0 km/h (0 Bft) 98,65 %
14.08.2021 00:00 16,6 C 15,3 C 13,7 C 87 % 1022,5 hPa 0,0 l/m 0,00 h 0,00 h 0 W/m 0,0 km/h (0 Bft) 97,92 %
14.08.2021 01:00 15,9 C 14,6 C 13,4 C 89 % 1022,3 hPa 0,0 l/m 0,00 h 0,00 h 0 W/m 0,0 km/h (0 Bft) 98,36 %
14.08.2021 02:00 15,2 C 14,2 C 12,8 C 91 % 1022,2 hPa 0,0 l/m 0,00 h 0,00 h 0 W/m 0,0 km/h (0 Bft) 96,23 %
14.08.2021 03:00 14,9 C 13,9 C 12,8 C 92 % 1021,9 hPa 0,0 l/m 0,00 h 0,00 h 0 W/m 0,0 km/h (0 Bft) 98,22 %
14.08.2021 04:00 14,5 C 13,5 C 12,5 C 93 % 1021,6 hPa 0,0 l/m 0,00 h 0,00 h 0 W/m 0,1 km/h (0 Bft) 98,16 %
14.08.2021 05:00 14,3 C 13,3 C 12,5 C 93 % 1021,5 hPa 0,0 l/m 0,00 h 0,00 h 0 W/m 0,2 km/h (0 Bft) 96,94 %
14.08.2021 06:00 13,7 C 12,8 C 11,9 C 93 % 1021,6 hPa 0,0 l/m 0,00 h 0,00 h 10 W/m 0,0 km/h (0 Bft) 97,31 %
14.08.2021 07:00 13,8 C 13,5 C 12,6 C 94 % 1021,6 hPa 0,0 l/m 0,00 h 0,00 h 23 W/m 0,1 km/h (0 Bft) 98,36 %
14.08.2021 08:00 15,4 C 16,1 C 14,3 C 91 % 1021,7 hPa 0,0 l/m 0,20 h 0,00 h 98 W/m 3,8 km/h (1 Bft) 98,01 %
14.08.2021 09:00 18,6 C 23,8 C 18,4 C 78 % 1021,5 hPa 0,0 l/m 0,97 h 0,00 h 440 W/m 9,9 km/h (2 Bft) 96,79 %
14.08.2021 10:00 20,7 C 23,3 C 18,1 C 67 % 1021,5 hPa 0,0 l/m 0,60 h 0,00 h 387 W/m 11,1 km/h (2 Bft) 96,23 %
14.08.2021 11:00 21,9 C 22,5 C 20,2 C 61 % 1021,3 hPa 0,0 l/m 1,00 h 0,00 h 740 W/m 13,5 km/h (3 Bft) 98,22 %
14.08.2021 12:00 23,4 C 25,6 C 24,8 C 56 % 1021,0 hPa 0,0 l/m 1,00 h 0,00 h 821 W/m 13,8 km/h (3 Bft) 97,61 %
14.08.2021 13:00 24,4 C 25,8 C 21,0 C 55 % 1020,7 hPa 0,0 l/m 1,00 h 0,00 h 857 W/m 16,1 km/h (3 Bft) 96,59 %
14.08.2021 14:00 25,3 C 28,2 C 21,7 C 56 % 1020,4 hPa 0,0 l/m 1,00 h 0,00 h 846 W/m 15,7 km/h (3 Bft) 95,95 %
14.08.2021 15:00 25,7 C 28,4 C 21,7 C 55 % 1020,2 hPa 0,0 l/m 1,00 h 0,00 h 777 W/m 15,3 km/h (3 Bft) 99,50 %
14.08.2021 16:00 25,8 C 30,4 C 22,1 C 57 % 1019,9 hPa 0,0 l/m 1,00 h 0,00 h 672 W/m 13,4 km/h (3 Bft) 95,09 %
14.08.2021 17:00 25,6 C 30,1 C 22,4 C 58 % 1019,6 hPa 0,0 l/m 1,00 h 0,00 h 530 W/m 13,3 km/h (3 Bft) 98,33 %
14.08.2021 18:00 25,3 C 28,9 C 22,0 C 60 % 1019,4 hPa 0,0 l/m 1,00 h 0,00 h 345 W/m 12,2 km/h (2 Bft) 98,05 %
14.08.2021 19:00 23,9 C 23,2 C 20,1 C 64 % 1019,2 hPa 0,0 l/m 0,17 h 0,00 h 73 W/m 9,0 km/h (2 Bft) 97,15 %
14.08.2021 20:00 22,6 C 21,4 C 18,6 C 69 % 1018,8 hPa 0,0 l/m 0,00 h 0,00 h 19 W/m 4,4 km/h (1 Bft) 96,86 %
14.08.2021 21:00 21,4 C 19,0 C 16,3 C 75 % 1018,9 hPa 0,0 l/m 0,00 h 0,00 h 0 W/m 0,1 km/h (0 Bft) 98,72 %
14.08.2021 22:00 19,6 C 17,4 C 15,4 C 81 % 1018,9 hPa 0,0 l/m 0,00 h 0,00 h 0 W/m 0,0 km/h (0 Bft) 95,66 %
14.08.2021 23:00 18,2 C 16,6 C 14,7 C 86 % 1018,7 hPa 0,0 l/m 0,00 h 0,00 h 0 W/m 0,0 km/h (0 Bft) 99,43 %
15.08.2021 00:00 17,4 C 16,0 C 14,2 C 87 % 1018,6 hPa 0,0 l/m 0,00 h 0,00 h 0 W/m 0,0 km/h (0 Bft) 97,78 %
15.08.2021 01:00 16,6 C 15,3 C 13,8 C 89 % 1018,3 hPa 0,0 l/m 0,00 h 0,00 h 0 W/m 0,0 km/h (0 Bft) 96,08 %
15.08.2021 02:00 16,1 C 15,3 C 13,6 C 91 % 1017,7 hPa 0,0 l/m 0,00 h 0,00 h 0 W/m 0,9 km/h (0 Bft) 98,50 %
15.08.2021 03:00 15,7 C 14,8 C 13,4 C 91 % 1017,2 hPa 0,0 l/m 0,00 h 0,00 h 0 W/m 1,4 km/h (1 Bft) 97,87 %
15.08.2021 04:00 15,3 C 14,4 C 13,4 C 92 % 1016,8 hPa 0,0 l/m 0,00 h 0,00 h 0 W/m 2,5 km/h (1 Bft) 97,94 %
15.08.2021 05:00 15,0 C 14,1 C 13,1 C 92 % 1016,3 hPa 0,0 l/m 0,00 h 0,00 h 0 W/m 3,5 km/h (1 Bft) 96,58 %
15.08.2021 06:00 14,6 C 13,9 C 12,8 C 93 % 1016,0 hPa 0,0 l/m 0,00 h 0,00 h 14 W/m 6,3 km/h (2 Bft) 99,11 %
15.08.2021 07:00 14,9 C 14,6 C 13,6 C 94 % 1016,0 hPa 0,0 l/m 0,00 h 0,00 h 49 W/m 4,9 km/h (1 Bft) 96,51 %
15.08.2021 08:00 16,1 C 16,6 C 15,1 C 93 % 1015,7 hPa 0,0 l/m 0,17 h 0,00 h 132 W/m 6,9 km/h (2 Bft) 97,87 %
15.08.2021 09:00 18,9 C 22,4 C 18,7 C 87 % 1015,4 hPa 0,0 l/m 0,90 h 0,00 h 359 W/m 8,8 km/h (2 Bft) 99,08 %
15.08.2021 10:00 21,6 C 22,8 C 19,8 C 78 % 1015,1 hPa 0,0 l/m 0,33 h 0,00 h 288 W/m 7,8 km/h (2 Bft) 96,58 %
15.08.2021 11:00 23,6 C 24,9 C 22,7 C 72 % 1014,8 hPa 0,0 l/m 0,90 h 0,00 h 543 W/m 10,4 km/h (2 Bft) 96,94 %
15.08.2021 12:00 25,3 C 26,6 C 25,5 C 65 % 1014,5 hPa 0,0 l/m 0,73 h 0,00 h 614 W/m 14,8 km/h (3 Bft) 98,82 %
15.08.2021 13:00 25,9 C 26,6 C 23,3 C 60 % 1014,0 hPa 0,0 l/m 0,70 h 0,00 h 517 W/m 15,1 km/h (3 Bft) 95,87 %
15.08.2021 14:00 27,3 C 29,4 C 23,8 C 57 % 1013,4 hPa 0,0 l/m 1,00 h 0,00 h 842 W/m 17,5 km/h (3 Bft) 97,65 %
15.08.2021 15:00 27,6 C 29,3 C 23,9 C 57 % 1012,9 hPa 0,0 l/m 0,97 h 0,00 h 663 W/m 16,5 km/h (3 Bft) 97,22 %
15.08.2021 16:00 27,9 C 31,2 C 24,0 C 56 % 1012,0 hPa 0,0 l/m 0,97 h 0,00 h 617 W/m 15,3 km/h (3 Bft) 97,93 %
15.08.2021 17:00 28,0 C 30,9 C 24,3 C 55 % 1011,3 hPa 0,0 l/m 1,00 h 0,00 h 441 W/m 12,7 km/h (3 Bft) 97,15 %
15.08.2021 18:00 27,6 C 29,0 C 23,9 C 57 % 1010,8 hPa 0,0 l/m 0,67 h 0,00 h 254 W/m 10,2 km/h (2 Bft) 97,42 %
15.08.2021 19:00 26,7 C 26,0 C 22,7 C 62 % 1010,3 hPa 0,0 l/m 0,53 h 0,00 h 105 W/m 5,2 km/h (1 Bft) 98,59 %
15.08.2021 20:00 26,0 C 24,7 C 21,5 C 64 % 1009,8 hPa 0,0 l/m 0,30 h 0,00 h 28 W/m 3,4 km/h (1 Bft) 95,66 %
15.08.2021 21:00 24,7 C 23,1 C 20,3 C 68 % 1009,5 hPa 0,0 l/m 0,00 h 0,00 h 0 W/m 1,0 km/h (0 Bft) 98,65 %
15.08.2021 22:00 23,2 C 21,9 C 19,4 C 73 % 1009,7 hPa 0,0 l/m 0,00 h 0,00 h 0 W/m 13,8 km/h (3 Bft) 97,38 %
15.08.2021 23:00 20,7 C 19,6 C 17,3 C 76 % 1010,4 hPa 0,0 l/m 0,00 h 0,00 h 0 W/m 13,9 km/h (3 Bft) 94,95 %
Min-Datum _ 10.08.21 10.08.21 14.08.21 12.08.21 15.08.21 - - - - 09.08.21 09.08.21
_ Min-Zeit 06:44 06:20 05:52 16:16 21:46 - - - - 02:10 20:42
Minimum _ 13,5 C 12,2 C 11,7 C 52 % 1009,3 hPa - - - - 0,0 km/h (0 Bft) 9,09 %
Max-Datum _ 15.08.21 12.08.21 14.08.21 11.08.21 13.08.21 09.08.21 09.08.21 09.08.21 10.08.21 09.08.21 09.08.21
_ Max-Zeit 17:28 16:38 12:30 09:44 22:14 18:12 12:08 18:08 13:52 12:28 00:34
Maximum _ 28,3 C 35,0 C 29,5 C 99 % 1022,6 hPa 4,8 l/m 0,07 h 0,07 h 1121 W/m 54,7 km/h
SO (7 Bft)
100,00 %
Durchschnitt _ 19,5 C 19,6 C 17,3 C 81 % 1018,2 hPa #11,8 l/m #49:20 h #4:52 h 315 W/m 6,8 km/h (2 Bft) 97,26 %
© 2021 W. Hausmann